Time;durP1;ratioP1;P1;durP2;ratioP2;P2;SDS_P1;SDS_P2;PMS_P1;PMS_P2;Temp;Humidity;BMP_temperature;BMP_pressure;BME280_temperature;BME280_humidity;BME280_pressure;Samples;Min_cycle;Max_cycle;Signal;HPM_P1;HPM_P2
2021/10/07 00:02:20;;;;;;;4.45;2.95;;;;;;;;;;4980154;28;21375;-61
2021/10/07 00:04:49;;;;;;;4.55;3.15;;;;;;;;;;4968362;28;20129;-61
2021/10/07 00:07:15;;;;;;;3.67;2.85;;;;;;;;;;4968424;28;20027;-61
2021/10/07 00:09:43;;;;;;;5.00;3.25;;;;;;;;;;4974192;28;20072;-61
2021/10/07 00:12:08;;;;;;;3.92;2.95;;;;;;;;;;4952805;28;20031;-61
2021/10/07 00:14:34;;;;;;;4.85;2.88;;;;;;;;;;4961576;28;20064;-61
2021/10/07 00:17:00;;;;;;;4.55;3.22;;;;;;;;;;4963187;28;20035;-60
2021/10/07 00:19:27;;;;;;;5.53;3.35;;;;;;;;;;4977078;28;20050;-60
2021/10/07 00:21:53;;;;;;;5.95;3.78;;;;;;;;;;4973472;28;20038;-59
2021/10/07 00:24:21;;;;;;;6.00;3.88;;;;;;;;;;4970680;28;20035;-60
2021/10/07 00:26:49;;;;;;;6.45;4.28;;;;;;;;;;4956968;28;20037;-61
2021/10/07 00:32:41;;;;;;;6.13;4.30;;;;;;;;;;4963641;28;20046;-61
2021/10/07 00:39:02;;;;;;;5.05;3.25;;;;;;;;;;4973614;28;20042;-60
2021/10/07 00:40:11;;;;;;;3.47;2.90;;;;;;;;;;4979461;28;20217;-60
2021/10/07 00:42:39;;;;;;;5.10;3.03;;;;;;;;;;4963315;28;21051;-60
2021/10/07 00:45:05;;;;;;;3.33;2.30;;;;;;;;;;4979300;28;20037;-60
2021/10/07 00:47:30;;;;;;;3.20;2.60;;;;;;;;;;4977423;28;20039;-60
2021/10/07 00:49:56;;;;;;;4.63;2.80;;;;;;;;;;4974315;28;20049;-60
2021/10/07 00:52:22;;;;;;;4.03;2.53;;;;;;;;;;4953491;28;21256;-60
2021/10/07 00:54:49;;;;;;;3.78;2.55;;;;;;;;;;4968906;28;20636;-60
2021/10/07 00:57:19;;;;;;;4.60;3.20;;;;;;;;;;4950682;28;20623;-60
2021/10/07 00:59:47;;;;;;;4.80;2.70;;;;;;;;;;4956758;28;20031;-60
2021/10/07 01:02:13;;;;;;;4.00;2.55;;;;;;;;;;4977297;28;21960;-60
2021/10/07 01:04:40;;;;;;;4.90;2.80;;;;;;;;;;4947628;28;20053;-59
2021/10/07 01:07:06;;;;;;;4.18;2.78;;;;;;;;;;4938866;28;20153;-60
2021/10/07 01:09:32;;;;;;;3.72;2.80;;;;;;;;;;4953754;28;21154;-60
2021/10/07 01:11:58;;;;;;;4.70;3.72;;;;;;;;;;4954093;28;20058;-60
2021/10/07 01:14:36;;;;;;;6.25;3.80;;;;;;;;;;4940958;28;20743;-60
2021/10/07 01:17:02;;;;;;;7.18;3.95;;;;;;;;;;4958289;28;20039;-60
2021/10/07 01:19:31;;;;;;;9.00;4.95;;;;;;;;;;4952547;28;20046;-60
2021/10/07 01:22:02;;;;;;;10.45;3.72;;;;;;;;;;4954702;28;20059;-59
2021/10/07 01:24:27;;;;;;;7.03;2.88;;;;;;;;;;4983646;28;20026;-60
2021/10/07 01:26:55;;;;;;;2.53;2.33;;;;;;;;;;4958349;28;20085;-59
2021/10/07 01:29:22;;;;;;;5.93;2.90;;;;;;;;;;4969008;28;22155;-60
2021/10/07 01:31:50;;;;;;;4.55;2.97;;;;;;;;;;4968398;28;20098;-59
2021/10/07 01:34:25;;;;;;;3.15;2.40;;;;;;;;;;4964121;28;20038;-59
2021/10/07 01:36:50;;;;;;;2.58;1.98;;;;;;;;;;4957468;28;20055;-60
2021/10/07 01:39:18;;;;;;;2.92;1.95;;;;;;;;;;4950262;28;20061;-59
2021/10/07 01:41:44;;;;;;;4.60;2.38;;;;;;;;;;4952047;28;20113;-60
2021/10/07 01:44:12;;;;;;;4.35;2.70;;;;;;;;;;4969728;28;20045;-60
2021/10/07 01:46:38;;;;;;;4.95;3.25;;;;;;;;;;4956214;28;20038;-59
2021/10/07 01:49:07;;;;;;;6.22;3.53;;;;;;;;;;4967608;28;20034;-59
2021/10/07 01:51:36;;;;;;;6.03;3.55;;;;;;;;;;4966345;28;20120;-59
2021/10/07 01:54:04;;;;;;;5.22;3.17;;;;;;;;;;4949135;28;20043;-59
2021/10/07 01:56:31;;;;;;;8.25;3.97;;;;;;;;;;4949961;28;20026;-60
2021/10/07 01:58:59;;;;;;;28.85;4.32;;;;;;;;;;4975169;28;20061;-59
2021/10/07 02:01:25;;;;;;;4.18;2.75;;;;;;;;;;4972232;28;20031;-59
2021/10/07 02:03:51;;;;;;;10.65;3.35;;;;;;;;;;4978310;28;20034;-59
2021/10/07 02:06:16;;;;;;;8.75;3.53;;;;;;;;;;4976029;28;20482;-60
2021/10/07 02:08:42;;;;;;;38.95;3.72;;;;;;;;;;4970972;28;20042;-60
2021/10/07 02:11:10;;;;;;;21.70;3.15;;;;;;;;;;4967030;28;20061;-59
2021/10/07 02:13:35;;;;;;;20.58;3.72;;;;;;;;;;4941024;28;20031;-60
2021/10/07 02:16:01;;;;;;;15.48;3.47;;;;;;;;;;4969895;28;20101;-60
2021/10/07 02:18:29;;;;;;;6.18;3.67;;;;;;;;;;4966569;28;20022;-60
2021/10/07 02:20:57;;;;;;;5.88;3.08;;;;;;;;;;4975929;28;20037;-60
2021/10/07 02:23:24;;;;;;;5.13;3.30;;;;;;;;;;4962291;28;20957;-60
2021/10/07 02:25:50;;;;;;;7.57;4.85;;;;;;;;;;4941651;28;20038;-60
2021/10/07 02:28:15;;;;;;;12.15;4.32;;;;;;;;;;4952802;28;20148;-60
2021/10/07 02:30:41;;;;;;;10.40;5.15;;;;;;;;;;4953455;28;21112;-60
2021/10/07 02:33:07;;;;;;;8.52;5.00;;;;;;;;;;4954978;28;20454;-60
2021/10/07 02:35:32;;;;;;;9.52;5.28;;;;;;;;;;4960159;28;20100;-60
2021/10/07 02:38:01;;;;;;;13.93;5.45;;;;;;;;;;4969693;28;20030;-60
2021/10/07 02:40:28;;;;;;;10.10;5.60;;;;;;;;;;4964826;28;20636;-60
2021/10/07 02:42:55;;;;;;;9.38;4.95;;;;;;;;;;4948451;28;20100;-60
2021/10/07 02:45:21;;;;;;;6.28;3.83;;;;;;;;;;4969837;28;20033;-60
2021/10/07 02:47:47;;;;;;;13.95;3.78;;;;;;;;;;4968024;28;20034;-60
2021/10/07 02:50:17;;;;;;;6.07;4.25;;;;;;;;;;4954132;28;20037;-59
2021/10/07 02:52:50;;;;;;;5.55;3.40;;;;;;;;;;4950729;28;20104;-59
2021/10/07 02:55:18;;;;;;;6.05;3.53;;;;;;;;;;4966513;28;20416;-59
2021/10/07 02:57:45;;;;;;;26.00;5.38;;;;;;;;;;4937127;28;20054;-59
2021/10/07 03:00:11;;;;;;;39.55;4.43;;;;;;;;;;4953483;28;20494;-59
2021/10/07 03:02:39;;;;;;;10.25;4.15;;;;;;;;;;4954739;28;20031;-59
2021/10/07 03:05:05;;;;;;;15.07;4.82;;;;;;;;;;4961127;28;20034;-59
2021/10/07 03:07:31;;;;;;;30.05;4.32;;;;;;;;;;4960704;28;20042;-59
2021/10/07 03:09:59;;;;;;;32.80;5.00;;;;;;;;;;4952185;28;20066;-59
2021/10/07 03:12:24;;;;;;;24.08;4.40;;;;;;;;;;4950053;28;20149;-59
2021/10/07 03:14:55;;;;;;;18.33;4.20;;;;;;;;;;4934854;28;20045;-60
2021/10/07 03:17:22;;;;;;;19.67;4.03;;;;;;;;;;4968308;28;22013;-59
2021/10/07 03:19:51;;;;;;;14.13;4.35;;;;;;;;;;4951829;28;20478;-59
2021/10/07 03:22:21;;;;;;;13.77;3.97;;;;;;;;;;4947111;28;20756;-59
2021/10/07 03:24:49;;;;;;;11.20;3.75;;;;;;;;;;4965126;28;20026;-59
2021/10/07 03:27:17;;;;;;;9.20;3.75;;;;;;;;;;4948252;28;21102;-59
2021/10/07 03:29:45;;;;;;;12.50;3.88;;;;;;;;;;4965118;28;20096;-59
2021/10/07 03:32:13;;;;;;;16.02;5.53;;;;;;;;;;4968218;28;20034;-58
2021/10/07 03:34:41;;;;;;;19.83;4.28;;;;;;;;;;4975357;28;20715;-60
2021/10/07 03:37:09;;;;;;;18.40;4.25;;;;;;;;;;4960655;28;20042;-59
2021/10/07 03:39:37;;;;;;;16.02;3.92;;;;;;;;;;4954449;28;20054;-59
2021/10/07 03:42:03;;;;;;;26.13;5.03;;;;;;;;;;4963295;28;20043;-58
2021/10/07 03:44:28;;;;;;;22.48;5.32;;;;;;;;;;4964782;28;21370;-59
2021/10/07 03:46:54;;;;;;;50.88;6.88;;;;;;;;;;4941142;28;20521;-59
2021/10/07 03:49:19;;;;;;;72.50;6.72;;;;;;;;;;4967111;28;20039;-58
2021/10/07 03:51:47;;;;;;;51.17;6.55;;;;;;;;;;4952192;28;20486;-58
2021/10/07 03:54:13;;;;;;;89.07;7.70;;;;;;;;;;4963091;28;20070;-59
2021/10/07 03:56:40;;;;;;;90.78;7.55;;;;;;;;;;4970981;28;20415;-59
2021/10/07 03:59:09;;;;;;;69.85;6.53;;;;;;;;;;4976996;28;20042;-59
2021/10/07 04:01:34;;;;;;;40.42;6.30;;;;;;;;;;4944799;28;20140;-59
2021/10/07 04:03:59;;;;;;;48.50;6.03;;;;;;;;;;4977088;28;20042;-59
2021/10/07 04:06:25;;;;;;;39.92;6.43;;;;;;;;;;4960546;28;20030;-59
2021/10/07 04:08:53;;;;;;;18.48;5.00;;;;;;;;;;4956154;28;20038;-58
2021/10/07 04:11:23;;;;;;;31.95;6.07;;;;;;;;;;4962488;28;20085;-59
2021/10/07 04:13:48;;;;;;;26.00;5.90;;;;;;;;;;4976340;28;20157;-59
2021/10/07 04:16:16;;;;;;;25.25;5.82;;;;;;;;;;4947334;28;20045;-59
2021/10/07 04:18:44;;;;;;;47.13;5.93;;;;;;;;;;4976312;28;20030;-58
2021/10/07 04:21:11;;;;;;;22.10;5.65;;;;;;;;;;4959636;28;20030;-58
2021/10/07 04:23:36;;;;;;;37.13;5.65;;;;;;;;;;4944902;28;20038;-59
2021/10/07 04:26:02;;;;;;;42.80;6.05;;;;;;;;;;4962369;28;20082;-58
2021/10/07 04:28:27;;;;;;;44.20;6.43;;;;;;;;;;4959953;28;20027;-58
2021/10/07 04:30:53;;;;;;;45.22;5.93;;;;;;;;;;4960819;28;20126;-59
2021/10/07 04:33:18;;;;;;;36.22;6.35;;;;;;;;;;4961593;28;20466;-58
2021/10/07 04:35:47;;;;;;;37.55;5.53;;;;;;;;;;4975471;28;20078;-58
2021/10/07 04:38:12;;;;;;;34.28;6.32;;;;;;;;;;4976150;28;20039;-58
2021/10/07 04:40:40;;;;;;;20.20;5.32;;;;;;;;;;4959766;28;20042;-58
2021/10/07 04:43:08;;;;;;;23.23;5.97;;;;;;;;;;4961491;28;20410;-58
2021/10/07 04:45:33;;;;;;;10.13;4.88;;;;;;;;;;4961265;28;20038;-59
2021/10/07 04:47:59;;;;;;;16.75;5.25;;;;;;;;;;4961926;28;20034;-58
2021/10/07 04:50:26;;;;;;;41.97;4.82;;;;;;;;;;4981948;28;20050;-59
2021/10/07 04:52:55;;;;;;;20.25;5.57;;;;;;;;;;4962013;28;20042;-58
2021/10/07 04:55:23;;;;;;;22.77;4.97;;;;;;;;;;4959612;28;20707;-59
2021/10/07 04:57:49;;;;;;;32.17;5.80;;;;;;;;;;4962844;28;20045;-59
2021/10/07 05:00:14;;;;;;;12.52;5.00;;;;;;;;;;4962676;28;20949;-59
2021/10/07 05:02:43;;;;;;;38.88;5.85;;;;;;;;;;4966100;28;20066;-58
2021/10/07 05:05:09;;;;;;;23.02;6.00;;;;;;;;;;4957516;28;20038;-59
2021/10/07 05:07:39;;;;;;;16.30;4.85;;;;;;;;;;4976554;28;20104;-58
2021/10/07 05:10:09;;;;;;;24.83;5.07;;;;;;;;;;4962401;28;20054;-58
2021/10/07 05:12:35;;;;;;;37.25;5.65;;;;;;;;;;4962168;28;20120;-59
2021/10/07 05:15:06;;;;;;;64.43;12.65;;;;;;;;;;4966185;28;20113;-58
2021/10/07 05:17:31;;;;;;;29.00;7.00;;;;;;;;;;4978176;28;20076;-58
2021/10/07 05:19:56;;;;;;;41.55;6.55;;;;;;;;;;4943477;28;20034;-58
2021/10/07 05:22:24;;;;;;;32.28;6.53;;;;;;;;;;4960225;28;20076;-58
2021/10/07 05:24:55;;;;;;;29.17;6.07;;;;;;;;;;4961327;28;20038;-58
2021/10/07 05:27:26;;;;;;;47.70;6.53;;;;;;;;;;4960324;28;21084;-58
2021/10/07 05:29:54;;;;;;;24.85;6.43;;;;;;;;;;4947273;28;20042;-58
2021/10/07 05:32:19;;;;;;;38.42;7.93;;;;;;;;;;4961324;28;20054;-58
2021/10/07 05:34:49;;;;;;;40.22;6.82;;;;;;;;;;4962200;28;20041;-58
2021/10/07 05:37:20;;;;;;;70.80;7.82;;;;;;;;;;4964878;28;21016;-59
2021/10/07 05:39:45;;;;;;;58.10;8.27;;;;;;;;;;4945465;28;20170;-58
2021/10/07 05:42:15;;;;;;;53.30;8.10;;;;;;;;;;4957983;28;20035;-57
2021/10/07 05:44:41;;;;;;;44.15;8.02;;;;;;;;;;4979201;28;20030;-57
2021/10/07 05:47:07;;;;;;;63.65;8.13;;;;;;;;;;4960995;28;20105;-58
2021/10/07 05:49:35;;;;;;;125.25;8.68;;;;;;;;;;4963104;28;20034;-59
2021/10/07 05:52:03;;;;;;;84.97;8.60;;;;;;;;;;4957589;28;20066;-58
2021/10/07 05:54:33;;;;;;;54.42;8.15;;;;;;;;;;4977970;28;20534;-57
2021/10/07 05:57:03;;;;;;;64.50;6.53;;;;;;;;;;4960919;28;21895;-57
2021/10/07 05:59:28;;;;;;;68.15;6.00;;;;;;;;;;4961662;28;20026;-56
2021/10/07 06:01:54;;;;;;;55.10;6.55;;;;;;;;;;4964547;28;20043;-57
2021/10/07 06:04:20;;;;;;;42.83;6.25;;;;;;;;;;4978308;28;20026;-58
2021/10/07 06:06:47;;;;;;;77.18;6.88;;;;;;;;;;4976098;28;20034;-58
2021/10/07 06:09:13;;;;;;;62.35;6.82;;;;;;;;;;4944490;28;20085;-57
2021/10/07 06:11:41;;;;;;;68.15;5.60;;;;;;;;;;4968075;28;20027;-58
2021/10/07 06:14:09;;;;;;;55.38;6.05;;;;;;;;;;4976928;28;20981;-58
2021/10/07 06:16:40;;;;;;;91.85;6.30;;;;;;;;;;4966701;28;20026;-57
2021/10/07 06:19:12;;;;;;;61.45;6.22;;;;;;;;;;4993661;28;20065;-57
2021/10/07 06:21:37;;;;;;;24.00;4.80;;;;;;;;;;4950450;28;20227;-57
2021/10/07 06:24:04;;;;;;;56.42;6.07;;;;;;;;;;4960572;28;20539;-57
2021/10/07 06:26:29;;;;;;;102.68;6.13;;;;;;;;;;4976630;28;20062;-56
2021/10/07 06:29:00;;;;;;;156.60;7.80;;;;;;;;;;4949338;28;20153;-58
2021/10/07 06:31:27;;;;;;;61.28;5.30;;;;;;;;;;4975942;28;20054;-59
2021/10/07 06:33:53;;;;;;;64.47;5.93;;;;;;;;;;4978649;28;20045;-58
2021/10/07 06:36:21;;;;;;;57.40;4.78;;;;;;;;;;4962713;28;20035;-58
2021/10/07 06:38:46;;;;;;;81.93;6.40;;;;;;;;;;4976635;28;20038;-58
2021/10/07 06:41:17;;;;;;;70.00;6.13;;;;;;;;;;4978165;28;20041;-58
2021/10/07 06:43:45;;;;;;;108.85;6.53;;;;;;;;;;4960541;28;20130;-59
2021/10/07 06:46:10;;;;;;;148.57;7.43;;;;;;;;;;4961148;28;20026;-58
2021/10/07 06:48:39;;;;;;;97.68;5.93;;;;;;;;;;4978305;28;20032;-57
2021/10/07 06:51:09;;;;;;;118.28;7.63;;;;;;;;;;4977929;28;20049;-58
2021/10/07 06:53:35;;;;;;;131.00;6.45;;;;;;;;;;4961170;28;20109;-58
2021/10/07 06:56:03;;;;;;;152.48;7.20;;;;;;;;;;4963116;28;20149;-58
2021/10/07 06:58:31;;;;;;;171.35;7.95;;;;;;;;;;4994573;28;20047;-56
2021/10/07 07:01:03;;;;;;;130.30;7.10;;;;;;;;;;4962550;28;20687;-58
2021/10/07 07:03:28;;;;;;;117.80;7.50;;;;;;;;;;4949610;28;20133;-58
2021/10/07 07:05:56;;;;;;;70.53;6.05;;;;;;;;;;4960516;28;20031;-58
2021/10/07 07:08:24;;;;;;;132.57;7.97;;;;;;;;;;4977501;28;20044;-58
2021/10/07 07:10:50;;;;;;;72.03;6.25;;;;;;;;;;4961988;28;20062;-58
2021/10/07 07:13:17;;;;;;;118.43;7.20;;;;;;;;;;4962051;28;20049;-58
2021/10/07 07:15:48;;;;;;;205.95;9.60;;;;;;;;;;4977327;28;20949;-56
2021/10/07 07:18:16;;;;;;;159.20;8.48;;;;;;;;;;4962741;28;20080;-58
2021/10/07 07:20:42;;;;;;;149.35;8.40;;;;;;;;;;4976449;28;20038;-57
2021/10/07 07:23:13;;;;;;;103.47;6.93;;;;;;;;;;4960685;28;23055;-57
2021/10/07 07:25:39;;;;;;;130.75;7.22;;;;;;;;;;4961831;28;20532;-57
2021/10/07 07:28:04;;;;;;;74.00;6.10;;;;;;;;;;4960910;28;20034;-57
2021/10/07 07:30:31;;;;;;;92.82;6.53;;;;;;;;;;4977598;28;20038;-58
2021/10/07 07:32:57;;;;;;;104.78;7.32;;;;;;;;;;4955238;28;20109;-57
2021/10/07 07:35:25;;;;;;;116.35;6.95;;;;;;;;;;4977438;28;20044;-57
2021/10/07 07:37:53;;;;;;;115.18;6.65;;;;;;;;;;4977676;28;20046;-58
2021/10/07 07:40:22;;;;;;;104.75;6.93;;;;;;;;;;4963258;28;20061;-57
2021/10/07 07:42:47;;;;;;;173.32;8.35;;;;;;;;;;4963329;28;20065;-59
2021/10/07 07:45:15;;;;;;;59.50;4.97;;;;;;;;;;4977466;28;20109;-58
2021/10/07 07:47:44;;;;;;;83.60;5.15;;;;;;;;;;4978155;28;20030;-58
2021/10/07 07:50:18;;;;;;;44.13;4.22;;;;;;;;;;4961506;28;20043;-57
2021/10/07 07:52:46;;;;;;;29.52;4.70;;;;;;;;;;4974670;28;20066;-59
2021/10/07 07:55:14;;;;;;;48.88;5.30;;;;;;;;;;4978189;28;20061;-57
2021/10/07 07:57:40;;;;;;;44.47;5.15;;;;;;;;;;4961191;28;20156;-58
2021/10/07 08:00:06;;;;;;;87.97;6.80;;;;;;;;;;4962183;28;20031;-59
2021/10/07 08:02:32;;;;;;;98.20;5.97;;;;;;;;;;4978372;28;20088;-57
2021/10/07 08:04:57;;;;;;;51.05;5.13;;;;;;;;;;4978533;28;20043;-57
2021/10/07 08:07:22;;;;;;;47.65;5.50;;;;;;;;;;4964511;28;20046;-57
2021/10/07 08:09:53;;;;;;;56.63;5.32;;;;;;;;;;4949613;28;20047;-57
2021/10/07 08:12:19;;;;;;;48.58;5.07;;;;;;;;;;4963673;28;20034;-57
2021/10/07 08:14:47;;;;;;;50.20;5.05;;;;;;;;;;4978397;28;20042;-57
2021/10/07 08:17:13;;;;;;;84.75;5.72;;;;;;;;;;4977053;28;20069;-58
2021/10/07 08:19:44;;;;;;;74.95;6.05;;;;;;;;;;4977320;28;20050;-57
2021/10/07 08:22:15;;;;;;;16.58;4.22;;;;;;;;;;4968359;28;20130;-57
2021/10/07 08:24:41;;;;;;;66.70;5.25;;;;;;;;;;4961300;28;20075;-57
2021/10/07 08:27:08;;;;;;;56.35;5.18;;;;;;;;;;4949509;28;20034;-57
2021/10/07 08:29:36;;;;;;;21.55;5.07;;;;;;;;;;4981369;28;20157;-57
2021/10/07 08:32:06;;;;;;;22.83;5.20;;;;;;;;;;4964416;28;20034;-57
2021/10/07 08:34:34;;;;;;;29.02;4.65;;;;;;;;;;4981011;28;20084;-57
2021/10/07 08:37:03;;;;;;;30.63;4.85;;;;;;;;;;4963768;28;20034;-57
2021/10/07 08:39:31;;;;;;;24.65;4.55;;;;;;;;;;4963391;28;20041;-57
2021/10/07 08:41:57;;;;;;;30.17;4.13;;;;;;;;;;4962739;28;20092;-57
2021/10/07 08:44:22;;;;;;;22.00;3.88;;;;;;;;;;4964590;28;20122;-57
2021/10/07 08:46:49;;;;;;;12.90;4.30;;;;;;;;;;4978994;28;20126;-57
2021/10/07 08:49:17;;;;;;;44.10;3.80;;;;;;;;;;4979813;28;20556;-57
2021/10/07 08:51:45;;;;;;;15.77;3.45;;;;;;;;;;4965081;28;20034;-57
2021/10/07 08:54:13;;;;;;;14.10;4.22;;;;;;;;;;4981156;28;21085;-57
2021/10/07 08:56:39;;;;;;;21.58;4.25;;;;;;;;;;4947725;28;20061;-57
2021/10/07 08:59:07;;;;;;;16.05;4.60;;;;;;;;;;4963799;28;22035;-57
2021/10/07 09:01:50;;;;;;;11.68;3.88;;;;;;;;;;4980025;28;20034;-57
2021/10/07 09:04:27;;;;;;;12.55;4.88;;;;;;;;;;4982332;28;20121;-57
2021/10/07 09:06:59;;;;;;;14.85;4.22;;;;;;;;;;4962552;28;20022;-57
2021/10/07 09:09:27;;;;;;;14.82;4.85;;;;;;;;;;4961101;28;20050;-56
2021/10/07 09:12:02;;;;;;;44.70;5.05;;;;;;;;;;4964145;28;21952;-57
2021/10/07 09:14:29;;;;;;;20.42;3.90;;;;;;;;;;4979487;28;20114;-60
2021/10/07 09:17:00;;;;;;;18.02;4.53;;;;;;;;;;4948358;28;20022;-57
2021/10/07 09:19:27;;;;;;;24.55;4.55;;;;;;;;;;4981889;28;20161;-57
2021/10/07 09:21:54;;;;;;;16.02;4.32;;;;;;;;;;4964445;28;20054;-57
2021/10/07 09:24:29;;;;;;;30.05;5.28;;;;;;;;;;4979294;28;20171;-57
2021/10/07 09:27:05;;;;;;;11.25;4.72;;;;;;;;;;4964463;28;20026;-58
2021/10/07 09:29:40;;;;;;;12.30;5.05;;;;;;;;;;4967584;28;20054;-58
2021/10/07 09:32:10;;;;;;;8.00;4.68;;;;;;;;;;4979783;28;20038;-58
2021/10/07 09:34:40;;;;;;;8.85;4.88;;;;;;;;;;4980559;28;20284;-58
2021/10/07 09:37:35;;;;;;;23.70;4.88;;;;;;;;;;4980332;28;22029;-58
2021/10/07 09:40:01;;;;;;;;;;;;;;;;;;4966809;28;20054;-59
2021/10/07 09:42:29;;;;;;;7.63;4.60;;;;;;;;;;4965634;28;19937;-59
2021/10/07 09:45:00;;;;;;;11.32;4.72;;;;;;;;;;4963778;28;20122;-58
2021/10/07 09:47:44;;;;;;;16.55;4.93;;;;;;;;;;4965652;28;20083;-58
2021/10/07 09:50:14;;;;;;;9.52;4.45;;;;;;;;;;4980021;28;20038;-58
2021/10/07 09:52:43;;;;;;;8.77;5.00;;;;;;;;;;4978608;28;20503;-58
2021/10/07 09:55:12;;;;;;;12.98;4.88;;;;;;;;;;4978789;28;20053;-58
2021/10/07 09:57:47;;;;;;;7.60;4.68;;;;;;;;;;4978420;28;20640;-58
2021/10/07 10:00:13;;;;;;;9.00;5.38;;;;;;;;;;4977122;28;20556;-59
2021/10/07 10:02:38;;;;;;;6.90;4.88;;;;;;;;;;4963777;28;20030;-58
2021/10/07 10:05:04;;;;;;;9.88;5.45;;;;;;;;;;4962820;28;20033;-58
2021/10/07 10:07:32;;;;;;;9.23;5.47;;;;;;;;;;4979918;28;20267;-59
2021/10/07 10:09:57;;;;;;;7.50;4.85;;;;;;;;;;4979543;28;20050;-58
2021/10/07 10:12:23;;;;;;;8.98;5.43;;;;;;;;;;4963162;28;20022;-58
2021/10/07 10:14:52;;;;;;;7.43;4.90;;;;;;;;;;4950016;28;20034;-59
2021/10/07 10:17:20;;;;;;;7.70;5.28;;;;;;;;;;4974141;28;20518;-58
2021/10/07 10:19:46;;;;;;;9.35;5.68;;;;;;;;;;4964097;28;20256;-58
2021/10/07 10:22:11;;;;;;;9.15;5.47;;;;;;;;;;4980640;28;20045;-59
2021/10/07 10:24:37;;;;;;;8.90;5.85;;;;;;;;;;4962896;28;20088;-59
2021/10/07 10:27:10;;;;;;;11.43;5.70;;;;;;;;;;4980103;28;20997;-58
2021/10/07 10:29:35;;;;;;;9.30;6.13;;;;;;;;;;4965818;28;20050;-58
2021/10/07 10:32:05;;;;;;;10.15;5.95;;;;;;;;;;4978924;28;21084;-58
2021/10/07 10:34:37;;;;;;;8.57;5.15;;;;;;;;;;4961939;28;20364;-58
2021/10/07 10:37:04;;;;;;;7.90;5.45;;;;;;;;;;4962085;28;20036;-59
2021/10/07 10:39:33;;;;;;;9.23;6.00;;;;;;;;;;4961982;28;20120;-59
2021/10/07 10:42:07;;;;;;;10.10;5.95;;;;;;;;;;4963865;28;20041;-60
2021/10/07 10:44:51;;;;;;;8.10;5.03;;;;;;;;;;4978070;28;20034;-59
2021/10/07 10:47:23;;;;;;;7.90;5.03;;;;;;;;;;4959693;28;20110;-58
2021/10/07 10:50:00;;;;;;;10.50;6.03;;;;;;;;;;4965434;28;20300;-59
2021/10/07 10:52:37;;;;;;;9.50;6.07;;;;;;;;;;4946571;28;20034;-59
2021/10/07 10:55:19;;;;;;;8.70;5.30;;;;;;;;;;4949752;28;20061;-58
2021/10/07 10:58:07;;;;;;;9.52;5.85;;;;;;;;;;4961459;28;20117;-57
2021/10/07 11:00:34;;;;;;;10.52;6.13;;;;;;;;;;4946574;28;20101;-59
2021/10/07 11:03:06;;;;;;;9.35;5.97;;;;;;;;;;4962778;28;20041;-59
2021/10/07 11:05:31;;;;;;;9.60;5.97;;;;;;;;;;4960798;28;20050;-59
2021/10/07 11:08:16;;;;;;;10.35;6.50;;;;;;;;;;4967236;28;20480;-59
2021/10/07 11:10:45;;;;;;;12.85;6.63;;;;;;;;;;4976818;28;20038;-59
2021/10/07 11:13:14;;;;;;;9.68;6.07;;;;;;;;;;4964125;28;20026;-58
2021/10/07 11:15:46;;;;;;;10.23;6.65;;;;;;;;;;4978047;28;21919;-59
2021/10/07 11:18:15;;;;;;;11.15;6.72;;;;;;;;;;4962354;28;20062;-59
2021/10/07 11:20:40;;;;;;;11.05;7.25;;;;;;;;;;4976126;28;20184;-59
2021/10/07 11:23:10;;;;;;;9.82;6.50;;;;;;;;;;4962476;28;20145;-59
2021/10/07 11:25:38;;;;;;;10.85;6.72;;;;;;;;;;4947567;28;20042;-58
2021/10/07 11:28:03;;;;;;;10.50;6.50;;;;;;;;;;4972676;28;20030;-59
2021/10/07 11:30:33;;;;;;;10.25;6.47;;;;;;;;;;4961372;28;20166;-60
2021/10/07 11:32:59;;;;;;;10.10;6.65;;;;;;;;;;4963705;28;20042;-59
2021/10/07 11:35:25;;;;;;;11.20;7.38;;;;;;;;;;4962521;28;20395;-59
2021/10/07 11:37:51;;;;;;;11.35;7.40;;;;;;;;;;4963273;28;20034;-60
2021/10/07 11:40:27;;;;;;;14.10;8.05;;;;;;;;;;4977682;28;21043;-59
2021/10/07 11:42:55;;;;;;;12.93;7.97;;;;;;;;;;4961965;28;20034;-61
2021/10/07 11:45:29;;;;;;;11.18;7.22;;;;;;;;;;4977564;28;20026;-60
2021/10/07 11:47:54;;;;;;;9.65;6.35;;;;;;;;;;4965096;28;20030;-59
2021/10/07 11:50:21;;;;;;;12.68;7.53;;;;;;;;;;4961901;28;20049;-59
2021/10/07 11:52:48;;;;;;;11.57;7.25;;;;;;;;;;4977644;28;20040;-59
2021/10/07 11:55:15;;;;;;;11.85;7.10;;;;;;;;;;4977735;28;20613;-59
2021/10/07 11:57:53;;;;;;;11.32;6.78;;;;;;;;;;4962914;28;20030;-60
2021/10/07 12:00:34;;;;;;;13.07;7.60;;;;;;;;;;4961447;28;20112;-59
2021/10/07 12:03:09;;;;;;;10.88;6.97;;;;;;;;;;4978545;28;20035;-60
2021/10/07 12:05:35;;;;;;;11.40;6.97;;;;;;;;;;4976311;28;20031;-60
2021/10/07 12:08:06;;;;;;;10.57;6.68;;;;;;;;;;4963925;28;22251;-60
2021/10/07 12:10:38;;;;;;;12.43;6.85;;;;;;;;;;4963283;28;20058;-60
2021/10/07 12:13:05;;;;;;;11.13;6.75;;;;;;;;;;4962080;28;20037;-60
2021/10/07 12:15:32;;;;;;;11.52;6.57;;;;;;;;;;4977879;28;20035;-59
2021/10/07 12:18:00;;;;;;;11.65;6.95;;;;;;;;;;4951196;28;20038;-59
2021/10/07 12:20:25;;;;;;;12.63;7.03;;;;;;;;;;4960409;28;20482;-59
2021/10/07 12:22:51;;;;;;;10.60;6.60;;;;;;;;;;4962769;28;20053;-60
2021/10/07 12:25:17;;;;;;;13.27;7.55;;;;;;;;;;4977411;28;21021;-60
2021/10/07 12:27:44;;;;;;;11.18;6.90;;;;;;;;;;4962903;28;22017;-60
2021/10/07 12:30:13;;;;;;;13.35;7.22;;;;;;;;;;4944678;28;20068;-60
2021/10/07 12:32:38;;;;;;;10.27;6.38;;;;;;;;;;4977295;28;20916;-59
2021/10/07 12:35:10;;;;;;;14.07;7.35;;;;;;;;;;4976607;28;20037;-59
2021/10/07 12:37:39;;;;;;;11.60;7.13;;;;;;;;;;4977271;28;21049;-59
2021/10/07 12:40:05;;;;;;;12.10;7.15;;;;;;;;;;4945071;28;20110;-61
2021/10/07 12:42:32;;;;;;;11.35;7.55;;;;;;;;;;4961832;28;20061;-61
2021/10/07 12:45:00;;;;;;;11.65;7.30;;;;;;;;;;4963671;28;20031;-59
2021/10/07 12:47:28;;;;;;;13.57;6.78;;;;;;;;;;4976887;28;20093;-61
2021/10/07 12:49:59;;;;;;;9.75;6.43;;;;;;;;;;4976417;28;20117;-60
2021/10/07 12:52:29;;;;;;;11.88;6.65;;;;;;;;;;4977903;28;20058;-59
2021/10/07 12:54:56;;;;;;;9.82;6.70;;;;;;;;;;4995045;28;20035;-59
2021/10/07 12:57:37;;;;;;;11.23;7.22;;;;;;;;;;4962403;28;21629;-59
2021/10/07 13:00:05;;;;;;;7.95;5.80;;;;;;;;;;4977663;28;20031;-59
2021/10/07 13:02:31;;;;;;;13.95;8.15;;;;;;;;;;4962700;28;20030;-59
2021/10/07 13:04:57;;;;;;;10.25;6.88;;;;;;;;;;4979837;28;20030;-60
2021/10/07 13:07:25;;;;;;;10.43;7.00;;;;;;;;;;4979105;28;20104;-59
2021/10/07 13:09:50;;;;;;;9.98;7.00;;;;;;;;;;4952798;28;20042;-60
2021/10/07 13:12:17;;;;;;;10.57;7.03;;;;;;;;;;4963068;28;20038;-61
2021/10/07 13:14:52;;;;;;;10.38;6.28;;;;;;;;;;4963293;28;20228;-60
2021/10/07 13:17:18;;;;;;;12.48;6.55;;;;;;;;;;4965927;28;20481;-60
2021/10/07 13:19:46;;;;;;;9.82;6.55;;;;;;;;;;4967006;28;20047;-60
2021/10/07 13:22:12;;;;;;;11.30;6.25;;;;;;;;;;4964097;28;20041;-60
2021/10/07 13:24:41;;;;;;;11.23;6.85;;;;;;;;;;4980895;28;20161;-60
2021/10/07 13:27:10;;;;;;;10.32;6.78;;;;;;;;;;4950370;28;20601;-60
2021/10/07 13:29:36;;;;;;;11.70;6.85;;;;;;;;;;4963790;28;20042;-59
2021/10/07 13:32:04;;;;;;;11.63;6.90;;;;;;;;;;4978782;28;20030;-60
2021/10/07 13:34:30;;;;;;;11.93;7.22;;;;;;;;;;4962464;28;20030;-60
2021/10/07 13:36:56;;;;;;;15.93;6.65;;;;;;;;;;4978307;28;20038;-59
2021/10/07 13:39:27;;;;;;;8.80;5.70;;;;;;;;;;4965377;28;20159;-59
2021/10/07 13:41:53;;;;;;;12.45;6.93;;;;;;;;;;4978179;28;20040;-61
2021/10/07 13:44:19;;;;;;;10.52;5.93;;;;;;;;;;4963794;28;20655;-60
2021/10/07 13:46:45;;;;;;;9.80;6.38;;;;;;;;;;4949548;28;20626;-60
2021/10/07 13:49:12;;;;;;;9.52;6.30;;;;;;;;;;4964001;28;20030;-61
2021/10/07 13:51:40;;;;;;;9.25;5.82;;;;;;;;;;4950528;28;20057;-61
2021/10/07 13:54:12;;;;;;;8.50;6.43;;;;;;;;;;4979042;28;20553;-61
2021/10/07 13:56:38;;;;;;;10.95;6.90;;;;;;;;;;4951287;28;20054;-60
2021/10/07 13:59:03;;;;;;;10.73;5.90;;;;;;;;;;4978879;28;20022;-60
2021/10/07 14:01:29;;;;;;;10.55;6.65;;;;;;;;;;4978854;28;20039;-60
2021/10/07 14:03:55;;;;;;;10.20;6.55;;;;;;;;;;4964181;28;20636;-60
2021/10/07 14:06:23;;;;;;;12.60;7.38;;;;;;;;;;4948518;28;20521;-60
2021/10/07 14:08:48;;;;;;;10.82;6.25;;;;;;;;;;4950988;28;20086;-59
2021/10/07 14:11:15;;;;;;;13.73;7.22;;;;;;;;;;4979363;28;20054;-61
2021/10/07 14:13:41;;;;;;;14.52;7.38;;;;;;;;;;4978335;28;20034;-59
2021/10/07 14:16:06;;;;;;;10.73;6.93;;;;;;;;;;4962534;28;20699;-60
2021/10/07 14:18:32;;;;;;;11.27;7.57;;;;;;;;;;4979570;28;20030;-59
2021/10/07 14:20:58;;;;;;;14.05;8.10;;;;;;;;;;4963734;28;20030;-59
2021/10/07 14:23:27;;;;;;;14.25;7.45;;;;;;;;;;4949217;28;20027;-59
2021/10/07 14:25:54;;;;;;;13.35;7.88;;;;;;;;;;4964310;28;20117;-59
2021/10/07 14:28:19;;;;;;;13.38;7.88;;;;;;;;;;4980818;28;20038;-59
2021/10/07 14:30:46;;;;;;;12.30;8.02;;;;;;;;;;4976273;28;20057;-59
2021/10/07 14:33:11;;;;;;;11.65;7.57;;;;;;;;;;4979404;28;20034;-59
2021/10/07 14:35:37;;;;;;;15.98;7.80;;;;;;;;;;4962627;28;20030;-59
2021/10/07 14:38:02;;;;;;;14.18;8.63;;;;;;;;;;4979032;28;20141;-58
2021/10/07 14:40:29;;;;;;;15.48;8.40;;;;;;;;;;4967309;28;20038;-59
2021/10/07 14:42:57;;;;;;;17.25;8.88;;;;;;;;;;4962945;28;20404;-59
2021/10/07 14:45:25;;;;;;;16.88;8.80;;;;;;;;;;4965375;28;20042;-60